sensor_id;sensor_type;location;lat;lon;timestamp;P1;durP1;ratioP1;P2;durP2;ratioP2
11121;SDS011;5615;49.304;10.576;2024-01-16T00:00:09;13.00;;;6.30;;
11121;SDS011;5615;49.304;10.576;2024-01-16T00:02:37;9.17;;;6.07;;
11121;SDS011;5615;49.304;10.576;2024-01-16T00:05:05;11.07;;;6.67;;
11121;SDS011;5615;49.304;10.576;2024-01-16T00:07:32;8.80;;;6.10;;
11121;SDS011;5615;49.304;10.576;2024-01-16T00:10:00;11.07;;;6.63;;
11121;SDS011;5615;49.304;10.576;2024-01-16T00:12:27;10.87;;;6.60;;
11121;SDS011;5615;49.304;10.576;2024-01-16T00:14:53;9.40;;;6.03;;
11121;SDS011;5615;49.304;10.576;2024-01-16T00:17:20;8.00;;;5.83;;
11121;SDS011;5615;49.304;10.576;2024-01-16T00:19:48;9.77;;;6.17;;
11121;SDS011;5615;49.304;10.576;2024-01-16T00:22:15;10.93;;;6.80;;
11121;SDS011;5615;49.304;10.576;2024-01-16T00:24:41;9.93;;;6.63;;
11121;SDS011;5615;49.304;10.576;2024-01-16T00:27:08;10.13;;;6.93;;
11121;SDS011;5615;49.304;10.576;2024-01-16T00:29:35;10.60;;;7.50;;
11121;SDS011;5615;49.304;10.576;2024-01-16T00:32:03;9.40;;;6.70;;
11121;SDS011;5615;49.304;10.576;2024-01-16T00:34:30;10.30;;;7.07;;
11121;SDS011;5615;49.304;10.576;2024-01-16T00:36:58;10.23;;;6.47;;
11121;SDS011;5615;49.304;10.576;2024-01-16T00:39:25;9.50;;;7.67;;
11121;SDS011;5615;49.304;10.576;2024-01-16T00:41:52;11.13;;;7.33;;
11121;SDS011;5615;49.304;10.576;2024-01-16T00:44:18;12.70;;;7.20;;
11121;SDS011;5615;49.304;10.576;2024-01-16T00:46:45;11.30;;;7.50;;
11121;SDS011;5615;49.304;10.576;2024-01-16T00:49:12;11.63;;;6.47;;
11121;SDS011;5615;49.304;10.576;2024-01-16T00:51:39;11.80;;;7.40;;
11121;SDS011;5615;49.304;10.576;2024-01-16T00:54:07;11.77;;;6.57;;
11121;SDS011;5615;49.304;10.576;2024-01-16T00:56:33;10.83;;;7.10;;
11121;SDS011;5615;49.304;10.576;2024-01-16T00:59:01;9.30;;;7.27;;
11121;SDS011;5615;49.304;10.576;2024-01-16T01:01:28;10.13;;;6.67;;
11121;SDS011;5615;49.304;10.576;2024-01-16T01:03:54;12.80;;;7.73;;
11121;SDS011;5615;49.304;10.576;2024-01-16T01:06:21;12.23;;;7.37;;
11121;SDS011;5615;49.304;10.576;2024-01-16T01:08:48;10.87;;;8.03;;
11121;SDS011;5615;49.304;10.576;2024-01-16T01:11:16;10.97;;;7.43;;
11121;SDS011;5615;49.304;10.576;2024-01-16T01:13:42;10.13;;;6.73;;
11121;SDS011;5615;49.304;10.576;2024-01-16T01:16:09;11.00;;;7.87;;
11121;SDS011;5615;49.304;10.576;2024-01-16T01:18:35;10.93;;;7.50;;
11121;SDS011;5615;49.304;10.576;2024-01-16T01:21:02;11.80;;;7.63;;
11121;SDS011;5615;49.304;10.576;2024-01-16T01:23:29;13.53;;;8.47;;
11121;SDS011;5615;49.304;10.576;2024-01-16T01:25:56;13.30;;;8.27;;
11121;SDS011;5615;49.304;10.576;2024-01-16T01:28:24;11.27;;;7.60;;
11121;SDS011;5615;49.304;10.576;2024-01-16T01:30:50;11.97;;;8.40;;
11121;SDS011;5615;49.304;10.576;2024-01-16T01:33:17;12.03;;;8.00;;
11121;SDS011;5615;49.304;10.576;2024-01-16T01:35:44;13.27;;;8.10;;
11121;SDS011;5615;49.304;10.576;2024-01-16T01:38:10;10.60;;;7.70;;
11121;SDS011;5615;49.304;10.576;2024-01-16T01:40:37;12.83;;;8.57;;
11121;SDS011;5615;49.304;10.576;2024-01-16T01:43:16;11.80;;;7.93;;
11121;SDS011;5615;49.304;10.576;2024-01-16T01:45:45;10.83;;;7.73;;
11121;SDS011;5615;49.304;10.576;2024-01-16T01:48:17;9.97;;;7.10;;
11121;SDS011;5615;49.304;10.576;2024-01-16T01:50:44;13.47;;;7.43;;
11121;SDS011;5615;49.304;10.576;2024-01-16T01:53:11;10.73;;;6.33;;
11121;SDS011;5615;49.304;10.576;2024-01-16T01:55:38;14.77;;;7.37;;
11121;SDS011;5615;49.304;10.576;2024-01-16T01:58:04;11.27;;;7.93;;
11121;SDS011;5615;49.304;10.576;2024-01-16T02:00:31;11.97;;;8.07;;
11121;SDS011;5615;49.304;10.576;2024-01-16T02:03:00;12.40;;;7.10;;
11121;SDS011;5615;49.304;10.576;2024-01-16T02:05:26;14.03;;;7.50;;
11121;SDS011;5615;49.304;10.576;2024-01-16T02:07:55;11.23;;;7.37;;
11121;SDS011;5615;49.304;10.576;2024-01-16T02:10:21;13.17;;;8.00;;
11121;SDS011;5615;49.304;10.576;2024-01-16T02:12:48;12.80;;;8.10;;
11121;SDS011;5615;49.304;10.576;2024-01-16T02:15:15;12.87;;;7.37;;
11121;SDS011;5615;49.304;10.576;2024-01-16T02:17:41;12.33;;;7.77;;
11121;SDS011;5615;49.304;10.576;2024-01-16T02:20:10;14.80;;;8.87;;
11121;SDS011;5615;49.304;10.576;2024-01-16T02:22:37;15.23;;;7.57;;
11121;SDS011;5615;49.304;10.576;2024-01-16T02:25:05;14.83;;;8.27;;
11121;SDS011;5615;49.304;10.576;2024-01-16T02:27:33;11.70;;;7.60;;
11121;SDS011;5615;49.304;10.576;2024-01-16T02:29:59;11.03;;;7.33;;
11121;SDS011;5615;49.304;10.576;2024-01-16T02:32:26;11.50;;;7.50;;
11121;SDS011;5615;49.304;10.576;2024-01-16T02:34:53;12.93;;;7.63;;
11121;SDS011;5615;49.304;10.576;2024-01-16T02:37:20;13.67;;;7.90;;
11121;SDS011;5615;49.304;10.576;2024-01-16T02:39:47;14.70;;;8.07;;
11121;SDS011;5615;49.304;10.576;2024-01-16T02:42:15;13.47;;;7.67;;
11121;SDS011;5615;49.304;10.576;2024-01-16T02:44:42;13.97;;;8.17;;
11121;SDS011;5615;49.304;10.576;2024-01-16T02:47:08;13.10;;;7.57;;
11121;SDS011;5615;49.304;10.576;2024-01-16T02:49:35;11.40;;;7.67;;
11121;SDS011;5615;49.304;10.576;2024-01-16T02:52:02;13.47;;;7.70;;
11121;SDS011;5615;49.304;10.576;2024-01-16T02:54:30;12.40;;;8.47;;
11121;SDS011;5615;49.304;10.576;2024-01-16T02:56:56;13.10;;;8.10;;
11121;SDS011;5615;49.304;10.576;2024-01-16T02:59:24;11.13;;;7.30;;
11121;SDS011;5615;49.304;10.576;2024-01-16T03:01:53;10.73;;;6.77;;
11121;SDS011;5615;49.304;10.576;2024-01-16T03:04:19;10.50;;;6.57;;
11121;SDS011;5615;49.304;10.576;2024-01-16T03:06:46;16.33;;;7.90;;
11121;SDS011;5615;49.304;10.576;2024-01-16T03:09:13;11.63;;;7.07;;
11121;SDS011;5615;49.304;10.576;2024-01-16T03:11:39;10.63;;;7.47;;
11121;SDS011;5615;49.304;10.576;2024-01-16T03:14:06;11.90;;;8.03;;
11121;SDS011;5615;49.304;10.576;2024-01-16T03:16:34;14.43;;;8.20;;
11121;SDS011;5615;49.304;10.576;2024-01-16T03:19:01;12.40;;;5.93;;
11121;SDS011;5615;49.304;10.576;2024-01-16T03:21:28;10.50;;;7.17;;
11121;SDS011;5615;49.304;10.576;2024-01-16T03:23:54;13.53;;;8.80;;
11121;SDS011;5615;49.304;10.576;2024-01-16T03:26:21;15.43;;;7.57;;
11121;SDS011;5615;49.304;10.576;2024-01-16T03:28:48;12.90;;;7.80;;
11121;SDS011;5615;49.304;10.576;2024-01-16T03:31:14;11.50;;;7.83;;
11121;SDS011;5615;49.304;10.576;2024-01-16T03:33:42;13.30;;;7.77;;
11121;SDS011;5615;49.304;10.576;2024-01-16T03:36:09;14.17;;;8.77;;
11121;SDS011;5615;49.304;10.576;2024-01-16T03:38:37;11.50;;;7.77;;
11121;SDS011;5615;49.304;10.576;2024-01-16T03:41:04;14.27;;;8.07;;
11121;SDS011;5615;49.304;10.576;2024-01-16T03:43:32;12.37;;;7.77;;
11121;SDS011;5615;49.304;10.576;2024-01-16T03:45:59;11.87;;;7.47;;
11121;SDS011;5615;49.304;10.576;2024-01-16T03:48:26;14.27;;;8.33;;
11121;SDS011;5615;49.304;10.576;2024-01-16T03:50:54;14.70;;;7.47;;
11121;SDS011;5615;49.304;10.576;2024-01-16T03:53:20;16.30;;;7.63;;
11121;SDS011;5615;49.304;10.576;2024-01-16T03:55:47;10.77;;;7.93;;
11121;SDS011;5615;49.304;10.576;2024-01-16T03:58:14;14.70;;;7.87;;
11121;SDS011;5615;49.304;10.576;2024-01-16T04:00:41;13.03;;;7.57;;
11121;SDS011;5615;49.304;10.576;2024-01-16T04:03:08;17.33;;;7.50;;
11121;SDS011;5615;49.304;10.576;2024-01-16T04:05:34;13.53;;;8.23;;
11121;SDS011;5615;49.304;10.576;2024-01-16T04:08:03;12.50;;;8.37;;
11121;SDS011;5615;49.304;10.576;2024-01-16T04:10:30;19.10;;;8.33;;
11121;SDS011;5615;49.304;10.576;2024-01-16T04:12:59;14.53;;;8.73;;
11121;SDS011;5615;49.304;10.576;2024-01-16T04:15:26;15.70;;;9.17;;
11121;SDS011;5615;49.304;10.576;2024-01-16T04:17:53;14.50;;;8.90;;
11121;SDS011;5615;49.304;10.576;2024-01-16T04:20:20;13.83;;;9.37;;
11121;SDS011;5615;49.304;10.576;2024-01-16T04:22:47;15.50;;;9.00;;
11121;SDS011;5615;49.304;10.576;2024-01-16T04:25:16;15.00;;;8.43;;
11121;SDS011;5615;49.304;10.576;2024-01-16T04:27:43;13.90;;;8.00;;
11121;SDS011;5615;49.304;10.576;2024-01-16T04:30:10;13.10;;;8.53;;
11121;SDS011;5615;49.304;10.576;2024-01-16T04:32:37;15.63;;;9.20;;
11121;SDS011;5615;49.304;10.576;2024-01-16T04:35:04;14.73;;;8.50;;
11121;SDS011;5615;49.304;10.576;2024-01-16T04:37:30;16.17;;;9.23;;
11121;SDS011;5615;49.304;10.576;2024-01-16T04:39:58;12.93;;;8.07;;
11121;SDS011;5615;49.304;10.576;2024-01-16T04:42:26;15.10;;;9.30;;
11121;SDS011;5615;49.304;10.576;2024-01-16T04:44:53;17.07;;;9.13;;
11121;SDS011;5615;49.304;10.576;2024-01-16T04:47:19;13.27;;;9.93;;
11121;SDS011;5615;49.304;10.576;2024-01-16T04:49:46;17.00;;;8.23;;
11121;SDS011;5615;49.304;10.576;2024-01-16T04:52:13;13.10;;;9.33;;
11121;SDS011;5615;49.304;10.576;2024-01-16T04:54:40;15.70;;;8.87;;
11121;SDS011;5615;49.304;10.576;2024-01-16T04:57:07;13.17;;;9.00;;
11121;SDS011;5615;49.304;10.576;2024-01-16T04:59:35;13.63;;;8.80;;
11121;SDS011;5615;49.304;10.576;2024-01-16T05:02:01;16.77;;;9.17;;
11121;SDS011;5615;49.304;10.576;2024-01-16T05:04:28;16.10;;;9.60;;
11121;SDS011;5615;49.304;10.576;2024-01-16T05:06:55;17.70;;;10.10;;
11121;SDS011;5615;49.304;10.576;2024-01-16T05:09:22;12.90;;;8.03;;
11121;SDS011;5615;49.304;10.576;2024-01-16T05:11:48;13.53;;;9.17;;
11121;SDS011;5615;49.304;10.576;2024-01-16T05:14:15;14.80;;;9.40;;
11121;SDS011;5615;49.304;10.576;2024-01-16T05:16:43;19.33;;;9.67;;
11121;SDS011;5615;49.304;10.576;2024-01-16T05:19:10;14.37;;;10.00;;
11121;SDS011;5615;49.304;10.576;2024-01-16T05:21:36;15.20;;;9.17;;
11121;SDS011;5615;49.304;10.576;2024-01-16T05:24:03;17.30;;;9.70;;
11121;SDS011;5615;49.304;10.576;2024-01-16T05:26:30;17.13;;;9.60;;
11121;SDS011;5615;49.304;10.576;2024-01-16T05:28:57;14.90;;;8.63;;
11121;SDS011;5615;49.304;10.576;2024-01-16T05:31:23;15.80;;;9.77;;
11121;SDS011;5615;49.304;10.576;2024-01-16T05:33:51;16.33;;;9.83;;
11121;SDS011;5615;49.304;10.576;2024-01-16T05:36:18;16.53;;;9.77;;
11121;SDS011;5615;49.304;10.576;2024-01-16T05:38:45;16.43;;;9.27;;
11121;SDS011;5615;49.304;10.576;2024-01-16T05:41:12;19.37;;;9.60;;
11121;SDS011;5615;49.304;10.576;2024-01-16T05:43:39;14.07;;;9.50;;
11121;SDS011;5615;49.304;10.576;2024-01-16T05:46:06;19.03;;;10.30;;
11121;SDS011;5615;49.304;10.576;2024-01-16T05:48:33;14.13;;;9.23;;
11121;SDS011;5615;49.304;10.576;2024-01-16T05:51:01;16.60;;;10.37;;
11121;SDS011;5615;49.304;10.576;2024-01-16T05:53:29;15.50;;;9.67;;
11121;SDS011;5615;49.304;10.576;2024-01-16T05:55:56;15.73;;;10.03;;
11121;SDS011;5615;49.304;10.576;2024-01-16T05:58:22;17.23;;;9.77;;
11121;SDS011;5615;49.304;10.576;2024-01-16T06:00:49;17.83;;;9.27;;
11121;SDS011;5615;49.304;10.576;2024-01-16T06:03:16;18.40;;;10.87;;
11121;SDS011;5615;49.304;10.576;2024-01-16T06:05:42;18.77;;;11.07;;
11121;SDS011;5615;49.304;10.576;2024-01-16T06:08:10;17.47;;;10.40;;
11121;SDS011;5615;49.304;10.576;2024-01-16T06:10:37;16.87;;;10.30;;
11121;SDS011;5615;49.304;10.576;2024-01-16T06:13:03;14.93;;;9.87;;
11121;SDS011;5615;49.304;10.576;2024-01-16T06:15:30;16.27;;;10.37;;
11121;SDS011;5615;49.304;10.576;2024-01-16T06:17:58;16.73;;;9.43;;
11121;SDS011;5615;49.304;10.576;2024-01-16T06:20:24;17.13;;;10.23;;
11121;SDS011;5615;49.304;10.576;2024-01-16T06:22:53;18.43;;;9.83;;
11121;SDS011;5615;49.304;10.576;2024-01-16T06:25:21;18.80;;;9.90;;
11121;SDS011;5615;49.304;10.576;2024-01-16T06:27:48;19.33;;;10.63;;
11121;SDS011;5615;49.304;10.576;2024-01-16T06:30:15;16.20;;;10.63;;
11121;SDS011;5615;49.304;10.576;2024-01-16T06:32:41;19.13;;;10.27;;
11121;SDS011;5615;49.304;10.576;2024-01-16T06:35:08;18.93;;;9.90;;
11121;SDS011;5615;49.304;10.576;2024-01-16T06:37:35;15.17;;;9.53;;
11121;SDS011;5615;49.304;10.576;2024-01-16T06:40:03;17.33;;;11.50;;
11121;SDS011;5615;49.304;10.576;2024-01-16T06:42:31;16.37;;;9.70;;
11121;SDS011;5615;49.304;10.576;2024-01-16T06:44:58;17.40;;;10.83;;
11121;SDS011;5615;49.304;10.576;2024-01-16T06:47:24;15.50;;;10.10;;
11121;SDS011;5615;49.304;10.576;2024-01-16T06:49:51;16.87;;;10.57;;
11121;SDS011;5615;49.304;10.576;2024-01-16T06:52:17;19.93;;;10.43;;
11121;SDS011;5615;49.304;10.576;2024-01-16T06:54:44;16.33;;;9.60;;
11121;SDS011;5615;49.304;10.576;2024-01-16T06:57:11;15.97;;;9.73;;
11121;SDS011;5615;49.304;10.576;2024-01-16T06:59:38;21.80;;;11.50;;
11121;SDS011;5615;49.304;10.576;2024-01-16T07:02:04;15.87;;;10.40;;
11121;SDS011;5615;49.304;10.576;2024-01-16T07:04:33;18.60;;;11.13;;
11121;SDS011;5615;49.304;10.576;2024-01-16T07:06:59;18.17;;;11.50;;
11121;SDS011;5615;49.304;10.576;2024-01-16T07:09:26;14.97;;;9.97;;
11121;SDS011;5615;49.304;10.576;2024-01-16T07:11:53;15.47;;;10.03;;
11121;SDS011;5615;49.304;10.576;2024-01-16T07:14:20;18.30;;;10.83;;
11121;SDS011;5615;49.304;10.576;2024-01-16T07:16:48;15.73;;;9.47;;
11121;SDS011;5615;49.304;10.576;2024-01-16T07:19:15;13.90;;;9.17;;
11121;SDS011;5615;49.304;10.576;2024-01-16T07:21:41;18.40;;;9.60;;
11121;SDS011;5615;49.304;10.576;2024-01-16T07:24:09;14.67;;;9.53;;
11121;SDS011;5615;49.304;10.576;2024-01-16T07:26:37;16.83;;;9.47;;
11121;SDS011;5615;49.304;10.576;2024-01-16T07:29:03;19.67;;;9.50;;
11121;SDS011;5615;49.304;10.576;2024-01-16T07:31:30;17.23;;;10.60;;
11121;SDS011;5615;49.304;10.576;2024-01-16T07:33:58;16.60;;;10.20;;
11121;SDS011;5615;49.304;10.576;2024-01-16T07:36:25;17.90;;;10.00;;
11121;SDS011;5615;49.304;10.576;2024-01-16T07:38:52;15.77;;;10.00;;
11121;SDS011;5615;49.304;10.576;2024-01-16T07:41:18;14.20;;;9.33;;
11121;SDS011;5615;49.304;10.576;2024-01-16T07:43:45;18.80;;;10.60;;
11121;SDS011;5615;49.304;10.576;2024-01-16T07:46:11;16.60;;;10.00;;
11121;SDS011;5615;49.304;10.576;2024-01-16T07:48:38;18.70;;;9.83;;
11121;SDS011;5615;49.304;10.576;2024-01-16T07:51:06;15.47;;;8.97;;
11121;SDS011;5615;49.304;10.576;2024-01-16T07:53:33;20.13;;;10.50;;
11121;SDS011;5615;49.304;10.576;2024-01-16T07:55:59;14.57;;;9.53;;
11121;SDS011;5615;49.304;10.576;2024-01-16T07:58:26;18.57;;;10.03;;
11121;SDS011;5615;49.304;10.576;2024-01-16T08:00:53;14.93;;;9.77;;
11121;SDS011;5615;49.304;10.576;2024-01-16T08:03:20;16.70;;;9.33;;
11121;SDS011;5615;49.304;10.576;2024-01-16T08:05:46;15.87;;;9.53;;
11121;SDS011;5615;49.304;10.576;2024-01-16T08:08:14;14.40;;;10.63;;
11121;SDS011;5615;49.304;10.576;2024-01-16T08:10:41;13.93;;;9.47;;
11121;SDS011;5615;49.304;10.576;2024-01-16T08:13:08;20.77;;;10.30;;
11121;SDS011;5615;49.304;10.576;2024-01-16T08:15:35;17.70;;;9.77;;
11121;SDS011;5615;49.304;10.576;2024-01-16T08:18:02;15.97;;;9.97;;
11121;SDS011;5615;49.304;10.576;2024-01-16T08:20:29;14.77;;;9.03;;
11121;SDS011;5615;49.304;10.576;2024-01-16T08:22:55;14.90;;;9.13;;
11121;SDS011;5615;49.304;10.576;2024-01-16T08:25:24;16.50;;;10.47;;
11121;SDS011;5615;49.304;10.576;2024-01-16T08:27:51;15.47;;;9.47;;
11121;SDS011;5615;49.304;10.576;2024-01-16T08:30:17;15.10;;;8.80;;
11121;SDS011;5615;49.304;10.576;2024-01-16T08:32:44;13.83;;;8.87;;
11121;SDS011;5615;49.304;10.576;2024-01-16T08:35:11;14.33;;;8.50;;
11121;SDS011;5615;49.304;10.576;2024-01-16T08:37:38;13.97;;;8.90;;
11121;SDS011;5615;49.304;10.576;2024-01-16T08:40:05;14.90;;;9.13;;
11121;SDS011;5615;49.304;10.576;2024-01-16T08:42:34;16.07;;;9.73;;
11121;SDS011;5615;49.304;10.576;2024-01-16T08:45:00;18.47;;;8.47;;
11121;SDS011;5615;49.304;10.576;2024-01-16T08:47:27;12.03;;;8.73;;
11121;SDS011;5615;49.304;10.576;2024-01-16T08:49:54;14.50;;;9.27;;
11121;SDS011;5615;49.304;10.576;2024-01-16T08:52:21;15.60;;;9.87;;
11121;SDS011;5615;49.304;10.576;2024-01-16T08:54:49;12.60;;;8.13;;
11121;SDS011;5615;49.304;10.576;2024-01-16T08:57:15;15.93;;;8.87;;
11121;SDS011;5615;49.304;10.576;2024-01-16T08:59:43;16.13;;;8.73;;
11121;SDS011;5615;49.304;10.576;2024-01-16T09:02:10;15.67;;;8.50;;
11121;SDS011;5615;49.304;10.576;2024-01-16T09:04:37;10.47;;;7.70;;
11121;SDS011;5615;49.304;10.576;2024-01-16T09:07:04;13.57;;;7.70;;
11121;SDS011;5615;49.304;10.576;2024-01-16T09:09:30;11.67;;;8.20;;
11121;SDS011;5615;49.304;10.576;2024-01-16T09:11:57;12.80;;;8.37;;
11121;SDS011;5615;49.304;10.576;2024-01-16T09:14:24;10.33;;;7.53;;
11121;SDS011;5615;49.304;10.576;2024-01-16T09:16:52;11.50;;;7.90;;
11121;SDS011;5615;49.304;10.576;2024-01-16T09:19:19;11.43;;;7.30;;
11121;SDS011;5615;49.304;10.576;2024-01-16T09:21:46;12.20;;;8.00;;
11121;SDS011;5615;49.304;10.576;2024-01-16T09:24:12;11.33;;;7.67;;
11121;SDS011;5615;49.304;10.576;2024-01-16T09:26:39;12.60;;;7.10;;
11121;SDS011;5615;49.304;10.576;2024-01-16T09:29:07;15.50;;;7.80;;
11121;SDS011;5615;49.304;10.576;2024-01-16T09:31:34;11.13;;;6.83;;
11121;SDS011;5615;49.304;10.576;2024-01-16T09:34:03;10.17;;;7.47;;
11121;SDS011;5615;49.304;10.576;2024-01-16T09:36:29;10.97;;;6.70;;
11121;SDS011;5615;49.304;10.576;2024-01-16T09:38:56;9.23;;;6.10;;
11121;SDS011;5615;49.304;10.576;2024-01-16T09:41:23;13.23;;;7.00;;
11121;SDS011;5615;49.304;10.576;2024-01-16T09:43:51;12.77;;;7.17;;
11121;SDS011;5615;49.304;10.576;2024-01-16T09:46:17;10.90;;;6.50;;
11121;SDS011;5615;49.304;10.576;2024-01-16T09:48:48;11.73;;;7.40;;
11121;SDS011;5615;49.304;10.576;2024-01-16T09:51:21;11.53;;;7.23;;
11121;SDS011;5615;49.304;10.576;2024-01-16T09:53:48;12.57;;;6.93;;
11121;SDS011;5615;49.304;10.576;2024-01-16T09:56:15;10.83;;;7.60;;
11121;SDS011;5615;49.304;10.576;2024-01-16T09:58:43;11.43;;;7.57;;
11121;SDS011;5615;49.304;10.576;2024-01-16T10:01:10;12.57;;;7.53;;
11121;SDS011;5615;49.304;10.576;2024-01-16T10:03:38;23.60;;;13.90;;
11121;SDS011;5615;49.304;10.576;2024-01-16T10:06:06;12.00;;;7.60;;
11121;SDS011;5615;49.304;10.576;2024-01-16T10:08:35;9.27;;;6.80;;
11121;SDS011;5615;49.304;10.576;2024-01-16T10:11:02;10.10;;;6.80;;
11121;SDS011;5615;49.304;10.576;2024-01-16T10:13:29;11.90;;;6.87;;
11121;SDS011;5615;49.304;10.576;2024-01-16T10:15:57;9.30;;;6.47;;
11121;SDS011;5615;49.304;10.576;2024-01-16T10:18:25;10.50;;;6.40;;
11121;SDS011;5615;49.304;10.576;2024-01-16T10:20:52;11.07;;;6.97;;
11121;SDS011;5615;49.304;10.576;2024-01-16T10:23:22;10.47;;;6.57;;
11121;SDS011;5615;49.304;10.576;2024-01-16T10:28:44;8.80;;;6.37;;
11121;SDS011;5615;49.304;10.576;2024-01-16T10:31:11;9.87;;;5.93;;
11121;SDS011;5615;49.304;10.576;2024-01-16T10:33:40;10.93;;;6.10;;
11121;SDS011;5615;49.304;10.576;2024-01-16T10:36:10;10.03;;;6.10;;
11121;SDS011;5615;49.304;10.576;2024-01-16T10:38:38;12.07;;;6.13;;
11121;SDS011;5615;49.304;10.576;2024-01-16T10:41:06;7.60;;;5.47;;
11121;SDS011;5615;49.304;10.576;2024-01-16T10:43:35;10.17;;;6.00;;
11121;SDS011;5615;49.304;10.576;2024-01-16T10:46:10;10.33;;;5.77;;
11121;SDS011;5615;49.304;10.576;2024-01-16T10:48:39;11.63;;;6.30;;
11121;SDS011;5615;49.304;10.576;2024-01-16T10:51:07;11.43;;;6.10;;
11121;SDS011;5615;49.304;10.576;2024-01-16T10:53:37;9.57;;;5.93;;
11121;SDS011;5615;49.304;10.576;2024-01-16T10:56:08;9.47;;;5.77;;
11121;SDS011;5615;49.304;10.576;2024-01-16T10:58:36;7.13;;;5.63;;
11121;SDS011;5615;49.304;10.576;2024-01-16T11:01:07;7.70;;;5.33;;
11121;SDS011;5615;49.304;10.576;2024-01-16T11:03:40;13.50;;;6.00;;
11121;SDS011;5615;49.304;10.576;2024-01-16T11:06:12;9.80;;;5.40;;
11121;SDS011;5615;49.304;10.576;2024-01-16T11:08:41;7.90;;;5.73;;
11121;SDS011;5615;49.304;10.576;2024-01-16T11:11:08;7.70;;;5.47;;
11121;SDS011;5615;49.304;10.576;2024-01-16T11:13:35;9.80;;;5.53;;
11121;SDS011;5615;49.304;10.576;2024-01-16T11:16:02;8.83;;;5.33;;
11121;SDS011;5615;49.304;10.576;2024-01-16T11:18:31;12.00;;;6.50;;
11121;SDS011;5615;49.304;10.576;2024-01-16T11:20:59;10.23;;;5.93;;
11121;SDS011;5615;49.304;10.576;2024-01-16T11:23:27;9.70;;;5.60;;
11121;SDS011;5615;49.304;10.576;2024-01-16T11:25:54;9.23;;;5.37;;
11121;SDS011;5615;49.304;10.576;2024-01-16T11:28:20;9.17;;;4.70;;
11121;SDS011;5615;49.304;10.576;2024-01-16T11:30:54;10.40;;;5.20;;
11121;SDS011;5615;49.304;10.576;2024-01-16T11:39:09;6.57;;;4.87;;
11121;SDS011;5615;49.304;10.576;2024-01-16T11:41:49;9.67;;;5.40;;
11121;SDS011;5615;49.304;10.576;2024-01-16T11:47:02;10.20;;;5.40;;
11121;SDS011;5615;49.304;10.576;2024-01-16T11:49:31;8.17;;;4.87;;
11121;SDS011;5615;49.304;10.576;2024-01-16T11:51:57;7.77;;;4.70;;
11121;SDS011;5615;49.304;10.576;2024-01-16T11:54:24;11.47;;;5.40;;
11121;SDS011;5615;49.304;10.576;2024-01-16T11:57:10;8.80;;;4.60;;
11121;SDS011;5615;49.304;10.576;2024-01-16T11:59:59;9.57;;;5.20;;
11121;SDS011;5615;49.304;10.576;2024-01-16T12:02:29;8.10;;;4.40;;
11121;SDS011;5615;49.304;10.576;2024-01-16T12:05:05;7.00;;;4.37;;
11121;SDS011;5615;49.304;10.576;2024-01-16T12:07:42;6.70;;;4.60;;
11121;SDS011;5615;49.304;10.576;2024-01-16T12:10:09;7.53;;;4.30;;
11121;SDS011;5615;49.304;10.576;2024-01-16T12:12:36;7.03;;;4.47;;
11121;SDS011;5615;49.304;10.576;2024-01-16T12:15:03;7.83;;;4.87;;
11121;SDS011;5615;49.304;10.576;2024-01-16T12:17:31;7.53;;;4.20;;
11121;SDS011;5615;49.304;10.576;2024-01-16T12:19:58;8.00;;;4.30;;
11121;SDS011;5615;49.304;10.576;2024-01-16T12:22:26;6.70;;;4.63;;
11121;SDS011;5615;49.304;10.576;2024-01-16T12:24:55;6.60;;;4.10;;
11121;SDS011;5615;49.304;10.576;2024-01-16T12:27:23;6.57;;;4.00;;
11121;SDS011;5615;49.304;10.576;2024-01-16T12:29:58;10.17;;;4.67;;
11121;SDS011;5615;49.304;10.576;2024-01-16T12:32:32;9.40;;;4.87;;
11121;SDS011;5615;49.304;10.576;2024-01-16T12:34:58;8.33;;;4.93;;
11121;SDS011;5615;49.304;10.576;2024-01-16T12:37:26;9.50;;;5.10;;
11121;SDS011;5615;49.304;10.576;2024-01-16T12:39:53;6.23;;;4.23;;
11121;SDS011;5615;49.304;10.576;2024-01-16T12:42:20;8.30;;;4.77;;
11121;SDS011;5615;49.304;10.576;2024-01-16T12:44:47;8.00;;;4.53;;
11121;SDS011;5615;49.304;10.576;2024-01-16T12:47:14;8.90;;;4.47;;
11121;SDS011;5615;49.304;10.576;2024-01-16T12:49:44;6.20;;;4.13;;
11121;SDS011;5615;49.304;10.576;2024-01-16T12:52:20;7.20;;;4.13;;
11121;SDS011;5615;49.304;10.576;2024-01-16T12:54:48;7.87;;;4.30;;
11121;SDS011;5615;49.304;10.576;2024-01-16T12:57:24;9.90;;;4.30;;
11121;SDS011;5615;49.304;10.576;2024-01-16T12:59:51;7.77;;;3.77;;
11121;SDS011;5615;49.304;10.576;2024-01-16T13:02:21;8.07;;;4.20;;
11121;SDS011;5615;49.304;10.576;2024-01-16T13:04:48;6.40;;;4.33;;
11121;SDS011;5615;49.304;10.576;2024-01-16T13:07:24;7.43;;;4.40;;
11121;SDS011;5615;49.304;10.576;2024-01-16T13:09:52;6.63;;;4.43;;
11121;SDS011;5615;49.304;10.576;2024-01-16T13:12:32;6.00;;;4.07;;
11121;SDS011;5615;49.304;10.576;2024-01-16T13:14:59;7.77;;;4.63;;
11121;SDS011;5615;49.304;10.576;2024-01-16T13:17:26;8.00;;;4.30;;
11121;SDS011;5615;49.304;10.576;2024-01-16T13:19:53;8.07;;;4.30;;
11121;SDS011;5615;49.304;10.576;2024-01-16T13:22:20;7.77;;;4.10;;
11121;SDS011;5615;49.304;10.576;2024-01-16T13:24:46;7.47;;;4.50;;
11121;SDS011;5615;49.304;10.576;2024-01-16T13:27:15;9.63;;;4.67;;
11121;SDS011;5615;49.304;10.576;2024-01-16T13:29:41;7.07;;;4.67;;
11121;SDS011;5615;49.304;10.576;2024-01-16T13:32:09;7.07;;;4.27;;
11121;SDS011;5615;49.304;10.576;2024-01-16T13:34:36;10.17;;;5.83;;
11121;SDS011;5615;49.304;10.576;2024-01-16T13:37:04;6.93;;;4.37;;
11121;SDS011;5615;49.304;10.576;2024-01-16T13:39:32;8.60;;;5.17;;
11121;SDS011;5615;49.304;10.576;2024-01-16T13:42:03;14.77;;;6.73;;
11121;SDS011;5615;49.304;10.576;2024-01-16T13:44:33;5.47;;;3.67;;
11121;SDS011;5615;49.304;10.576;2024-01-16T13:46:59;10.33;;;4.40;;
11121;SDS011;5615;49.304;10.576;2024-01-16T13:49:26;7.13;;;4.23;;
11121;SDS011;5615;49.304;10.576;2024-01-16T13:51:52;9.10;;;4.47;;
11121;SDS011;5615;49.304;10.576;2024-01-16T13:54:19;9.10;;;4.47;;
11121;SDS011;5615;49.304;10.576;2024-01-16T13:56:46;7.63;;;4.37;;
11121;SDS011;5615;49.304;10.576;2024-01-16T13:59:12;9.50;;;4.90;;
11121;SDS011;5615;49.304;10.576;2024-01-16T14:01:40;11.80;;;8.50;;
11121;SDS011;5615;49.304;10.576;2024-01-16T14:04:07;10.23;;;4.63;;
11121;SDS011;5615;49.304;10.576;2024-01-16T14:06:34;5.77;;;4.17;;
11121;SDS011;5615;49.304;10.576;2024-01-16T14:09:00;7.43;;;4.10;;
11121;SDS011;5615;49.304;10.576;2024-01-16T14:11:27;6.43;;;3.93;;
11121;SDS011;5615;49.304;10.576;2024-01-16T14:13:54;7.60;;;4.40;;
11121;SDS011;5615;49.304;10.576;2024-01-16T14:16:22;8.07;;;4.23;;
11121;SDS011;5615;49.304;10.576;2024-01-16T14:18:50;8.87;;;4.80;;
11121;SDS011;5615;49.304;10.576;2024-01-16T14:21:17;11.23;;;4.97;;
11121;SDS011;5615;49.304;10.576;2024-01-16T14:23:43;10.37;;;4.83;;
11121;SDS011;5615;49.304;10.576;2024-01-16T14:26:10;9.53;;;4.87;;
11121;SDS011;5615;49.304;10.576;2024-01-16T14:28:37;9.47;;;4.53;;
11121;SDS011;5615;49.304;10.576;2024-01-16T14:31:03;7.70;;;4.97;;
11121;SDS011;5615;49.304;10.576;2024-01-16T14:33:30;13.73;;;4.50;;
11121;SDS011;5615;49.304;10.576;2024-01-16T14:35:58;10.93;;;4.63;;
11121;SDS011;5615;49.304;10.576;2024-01-16T14:38:25;7.43;;;4.33;;
11121;SDS011;5615;49.304;10.576;2024-01-16T14:40:51;10.07;;;5.03;;
11121;SDS011;5615;49.304;10.576;2024-01-16T14:43:21;10.47;;;4.70;;
11121;SDS011;5615;49.304;10.576;2024-01-16T14:45:47;6.20;;;3.87;;
11121;SDS011;5615;49.304;10.576;2024-01-16T14:48:14;6.90;;;4.07;;